Time,TemperatureF,DewpointF,PressureIn,WindDirection,WindDirectionDegrees,WindSpeedMPH,WindSpeedGustMPH,Humidity,HourlyPrecipIn,Conditions,Clouds,dailyrainin,SoftwareType,DateUTC
2013-06-13 00:01:00,53.0,53.0,30.27,South,171,3.0,4.0,100,0.00,,,0.00,,2013-06-13 07:01:00,
2013-06-13 00:11:00,53.0,53.0,30.27,SW,220,1.0,5.0,100,0.00,,,0.00,,2013-06-13 07:11:00,
2013-06-13 00:22:00,53.0,53.0,30.27,SW,220,1.0,5.0,100,0.00,,,0.00,,2013-06-13 07:22:00,
2013-06-13 00:33:00,53.0,53.0,30.27,South,188,2.0,6.0,100,0.00,,,0.00,,2013-06-13 07:33:00,
2013-06-13 00:42:00,53.0,53.0,30.26,SSE,149,2.0,6.0,100,0.00,,,0.00,,2013-06-13 07:42:00,
2013-06-13 00:52:00,53.0,53.0,30.26,SSE,165,2.0,6.0,100,0.00,,,0.00,,2013-06-13 07:52:00,
2013-06-13 01:01:00,53.0,53.0,30.26,SSE,165,2.0,6.0,100,0.00,,,0.00,,2013-06-13 08:01:00,
2013-06-13 01:11:00,54.0,54.0,30.26,SW,224,3.0,6.0,100,0.00,,,0.00,,2013-06-13 08:11:00,
2013-06-13 01:21:00,54.0,54.0,30.26,SW,224,3.0,6.0,100,0.00,,,0.00,,2013-06-13 08:21:00,
2013-06-13 01:32:00,54.0,54.0,30.26,SSW,194,4.0,7.0,100,0.00,,,0.00,,2013-06-13 08:32:00,
2013-06-13 01:42:00,53.0,53.0,30.26,South,173,4.0,7.0,100,0.00,,,0.00,,2013-06-13 08:42:00,
2013-06-13 01:52:00,53.0,53.0,30.26,South,173,4.0,7.0,100,0.00,,,0.00,,2013-06-13 08:52:00,
2013-06-13 02:01:00,53.0,53.0,30.26,South,186,3.0,7.0,100,0.00,,,0.00,,2013-06-13 09:01:00,
2013-06-13 02:11:00,53.0,53.0,30.26,South,178,2.0,6.0,100,0.01,,,0.01,,2013-06-13 09:11:00,
2013-06-13 02:21:00,53.0,53.0,30.25,SSE,156,3.0,5.0,100,0.01,,,0.01,,2013-06-13 09:21:00,
2013-06-13 02:32:00,53.0,53.0,30.25,SSE,156,3.0,5.0,100,0.01,,,0.01,,2013-06-13 09:32:00,
2013-06-13 02:42:00,53.0,53.0,30.25,South,185,4.0,6.0,100,0.01,,,0.01,,2013-06-13 09:42:00,
2013-06-13 02:52:00,53.0,53.0,30.25,South,185,4.0,6.0,100,0.01,,,0.01,,2013-06-13 09:52:00,
2013-06-13 03:01:00,53.0,53.0,30.25,South,179,4.0,10.0,100,0.01,,,0.01,,2013-06-13 10:01:00,
2013-06-13 03:11:00,53.0,53.0,30.25,South,186,4.0,8.0,100,0.00,,,0.01,,2013-06-13 10:11:00,
2013-06-13 03:22:00,52.0,52.0,30.25,WSW,238,5.0,11.0,100,0.00,,,0.01,,2013-06-13 10:22:00,
2013-06-13 03:33:00,52.0,52.0,30.25,WSW,238,5.0,11.0,100,0.00,,,0.01,,2013-06-13 10:33:00,
2013-06-13 03:42:00,52.0,52.0,30.25,SSW,201,3.0,6.0,100,0.01,,,0.02,,2013-06-13 10:42:00,
2013-06-13 03:53:00,52.0,52.0,30.25,South,181,4.0,8.0,100,0.04,,,0.05,,2013-06-13 10:53:00,
2013-06-13 04:01:00,52.0,52.0,30.25,South,181,4.0,8.0,100,0.04,,,0.05,,2013-06-13 11:01:00,
2013-06-13 04:11:00,52.0,52.0,30.25,SW,220,3.0,7.0,100,0.06,,,0.07,,2013-06-13 11:11:00,
2013-06-13 04:23:00,52.0,52.0,30.25,WSW,252,3.0,7.0,100,0.11,,,0.12,,2013-06-13 11:23:00,
2013-06-13 04:32:00,52.0,52.0,30.25,WSW,252,3.0,7.0,100,0.11,,,0.12,,2013-06-13 11:32:00,
2013-06-13 04:42:00,52.0,52.0,30.24,West,273,1.0,4.0,100,0.11,,,0.13,,2013-06-13 11:42:00,
2013-06-13 04:52:00,52.0,52.0,30.24,WSW,249,1.0,3.0,100,0.09,,,0.14,,2013-06-13 11:52:00,
2013-06-13 05:01:00,52.0,52.0,30.24,WSW,249,1.0,3.0,100,0.09,,,0.14,,2013-06-13 12:01:00,
2013-06-13 05:11:00,52.0,52.0,30.25,SSE,168,3.0,5.0,100,0.08,,,0.15,,2013-06-13 12:11:00,
2013-06-13 05:22:00,53.0,53.0,30.24,SSE,167,2.0,5.0,100,0.03,,,0.15,,2013-06-13 12:22:00,
2013-06-13 05:34:00,53.0,53.0,30.24,SSE,167,2.0,5.0,100,0.03,,,0.15,,2013-06-13 12:34:00,
2013-06-13 05:42:00,53.0,53.0,30.24,South,177,1.0,4.0,100,0.02,,,0.15,,2013-06-13 12:42:00,
2013-06-13 05:52:00,53.0,53.0,30.24,South,175,2.0,5.0,100,0.02,,,0.16,,2013-06-13 12:52:00,
2013-06-13 06:01:00,53.0,53.0,30.24,South,175,2.0,5.0,100,0.02,,,0.16,,2013-06-13 13:01:00,
2013-06-13 06:11:00,53.0,53.0,30.24,South,176,3.0,6.0,100,0.01,,,0.16,,2013-06-13 13:11:00,
2013-06-13 06:21:00,53.0,53.0,30.24,South,176,3.0,6.0,100,0.01,,,0.16,,2013-06-13 13:21:00,
2013-06-13 06:32:00,52.0,52.0,30.25,South,179,5.0,10.0,100,0.01,,,0.16,,2013-06-13 13:32:00,
2013-06-13 06:43:00,52.0,52.0,30.25,SSW,192,5.0,11.0,100,0.02,,,0.17,,2013-06-13 13:43:00,
2013-06-13 06:53:00,52.0,52.0,30.25,SSW,192,5.0,11.0,100,0.02,,,0.17,,2013-06-13 13:53:00,
2013-06-13 07:01:00,52.0,52.0,30.25,SSW,195,5.0,10.0,100,0.05,,,0.21,,2013-06-13 14:01:00,
2013-06-13 07:11:00,52.0,52.0,30.25,SW,236,3.0,10.0,100,0.10,,,0.26,,2013-06-13 14:11:00,
2013-06-13 07:21:00,52.0,52.0,30.25,SW,236,3.0,10.0,100,0.10,,,0.26,,2013-06-13 14:21:00,
2013-06-13 07:33:00,52.0,52.0,30.26,SSW,203,7.0,10.0,100,0.13,,,0.29,,2013-06-13 14:33:00,
2013-06-13 07:43:00,52.0,52.0,30.26,SW,222,6.0,12.0,100,0.13,,,0.29,,2013-06-13 14:43:00,
2013-06-13 07:53:00,52.0,52.0,30.26,SSW,206,7.0,9.0,100,0.10,,,0.31,,2013-06-13 14:53:00,
2013-06-13 08:01:00,52.0,52.0,30.26,SSW,206,7.0,9.0,100,0.10,,,0.31,,2013-06-13 15:01:00,
2013-06-13 08:11:00,52.0,52.0,30.25,South,176,4.0,6.0,100,0.05,,,0.31,,2013-06-13 15:11:00,
2013-06-13 08:21:00,53.0,53.0,30.26,SSW,200,4.0,12.0,100,0.06,,,0.34,,2013-06-13 15:21:00,
2013-06-13 08:33:00,53.0,53.0,30.26,SSW,200,4.0,12.0,100,0.06,,,0.34,,2013-06-13 15:33:00,
2013-06-13 08:43:00,52.0,52.0,30.26,SSE,162,4.0,8.0,100,0.10,,,0.39,,2013-06-13 15:43:00,
2013-06-13 08:53:00,52.0,52.0,30.27,South,182,5.0,9.0,100,0.10,,,0.41,,2013-06-13 15:53:00,
2013-06-13 09:01:00,52.0,52.0,30.27,South,182,5.0,9.0,100,0.10,,,0.41,,2013-06-13 16:01:00,
2013-06-13 09:11:00,52.0,52.0,30.27,SW,232,4.0,6.0,100,0.14,,,0.45,,2013-06-13 16:11:00,
2013-06-13 09:22:00,52.0,52.0,30.27,South,187,7.0,13.0,100,0.12,,,0.45,,2013-06-13 16:22:00,
2013-06-13 09:33:00,52.0,52.0,30.27,South,187,7.0,13.0,100,0.12,,,0.45,,2013-06-13 16:33:00,
2013-06-13 09:43:00,53.0,53.0,30.28,South,172,5.0,11.0,100,0.06,,,0.45,,2013-06-13 16:43:00,
2013-06-13 09:53:00,53.0,53.0,30.28,South,172,5.0,11.0,100,0.06,,,0.45,,2013-06-13 16:53:00,
2013-06-13 10:02:00,53.0,53.0,30.28,South,189,6.0,13.0,100,0.04,,,0.45,,2013-06-13 17:02:00,
2013-06-13 10:11:00,53.0,53.0,30.28,South,185,9.0,14.0,100,0.00,,,0.45,,2013-06-13 17:11:00,
2013-06-13 10:24:00,53.0,53.0,30.28,South,185,9.0,14.0,100,0.00,,,0.45,,2013-06-13 17:24:00,
2013-06-13 10:32:00,54.0,54.0,30.28,SSE,161,7.0,14.0,100,0.00,,,0.45,,2013-06-13 17:32:00,
2013-06-13 10:43:00,54.0,54.0,30.29,South,181,7.0,16.0,100,0.00,,,0.45,,2013-06-13 17:43:00,
2013-06-13 10:53:00,54.0,54.0,30.29,South,181,7.0,16.0,100,0.00,,,0.45,,2013-06-13 17:53:00,
2013-06-13 11:01:00,54.0,54.0,30.29,SSW,211,7.0,16.0,100,0.00,,,0.45,,2013-06-13 18:01:00,
2013-06-13 11:11:00,54.0,54.0,30.29,SSE,158,6.0,12.0,100,0.00,,,0.45,,2013-06-13 18:11:00,
2013-06-13 11:22:00,54.0,54.0,30.30,South,187,9.0,13.0,100,0.00,,,0.45,,2013-06-13 18:22:00,
2013-06-13 11:33:00,54.0,54.0,30.30,South,187,9.0,13.0,100,0.00,,,0.45,,2013-06-13 18:33:00,
2013-06-13 11:43:00,54.0,54.0,30.30,South,182,5.0,12.0,100,0.00,,,0.45,,2013-06-13 18:43:00,
2013-06-13 11:52:00,54.0,54.0,30.30,South,182,5.0,12.0,100,0.00,,,0.45,,2013-06-13 18:52:00,
2013-06-13 12:01:00,54.0,54.0,30.31,SSW,209,4.0,10.0,100,0.00,,,0.45,,2013-06-13 19:01:00,
2013-06-13 12:11:00,55.0,55.0,30.30,South,188,6.0,11.0,100,0.00,,,0.45,,2013-06-13 19:11:00,
2013-06-13 12:22:00,56.0,56.0,30.31,SSE,160,6.0,11.0,100,0.00,,,0.45,,2013-06-13 19:22:00,
2013-06-13 12:32:00,56.0,56.0,30.31,SSE,160,6.0,11.0,100,0.00,,,0.45,,2013-06-13 19:32:00,
2013-06-13 12:43:00,56.0,56.0,30.31,South,189,7.0,12.0,100,0.00,,,0.45,,2013-06-13 19:43:00,
2013-06-13 12:53:00,56.0,56.0,30.31,South,189,7.0,12.0,100,0.00,,,0.45,,2013-06-13 19:53:00,
2013-06-13 13:01:00,56.0,56.0,30.31,SSE,168,8.0,14.0,100,0.00,,,0.45,,2013-06-13 20:01:00,
2013-06-13 13:11:00,56.0,56.0,30.32,SSW,194,7.0,15.0,100,0.00,,,0.45,,2013-06-13 20:11:00,
2013-06-13 13:22:00,56.0,56.0,30.32,SW,232,10.0,15.0,100,0.00,,,0.45,,2013-06-13 20:22:00,
2013-06-13 13:32:00,56.0,56.0,30.32,SW,232,10.0,15.0,100,0.00,,,0.45,,2013-06-13 20:32:00,
2013-06-13 13:43:00,55.0,55.0,30.32,SSW,199,8.0,16.0,100,0.00,,,0.45,,2013-06-13 20:43:00,
2013-06-13 13:53:00,55.0,55.0,30.32,SSW,199,8.0,16.0,100,0.00,,,0.45,,2013-06-13 20:53:00,
2013-06-13 14:01:00,56.0,56.0,30.33,SSW,202,8.0,13.0,100,0.00,,,0.45,,2013-06-13 21:01:00,
2013-06-13 14:11:00,57.0,57.0,30.33,South,187,5.0,11.0,100,0.00,,,0.45,,2013-06-13 21:11:00,
2013-06-13 14:22:00,57.0,57.0,30.33,SW,218,7.0,12.0,100,0.00,,,0.45,,2013-06-13 21:22:00,
2013-06-13 14:33:00,57.0,57.0,30.33,SW,218,7.0,12.0,100,0.00,,,0.45,,2013-06-13 21:33:00,
2013-06-13 14:43:00,58.0,58.0,30.34,South,187,8.0,13.0,100,0.00,,,0.45,,2013-06-13 21:43:00,
2013-06-13 14:52:00,58.0,58.0,30.34,SW,219,8.0,14.0,100,0.00,,,0.45,,2013-06-13 21:52:00,
2013-06-13 15:01:00,58.0,58.0,30.34,SW,219,8.0,14.0,100,0.00,,,0.45,,2013-06-13 22:01:00,
2013-06-13 15:11:00,57.0,57.0,30.34,SW,221,10.0,15.0,100,0.00,,,0.45,,2013-06-13 22:11:00,
2013-06-13 15:22:00,57.0,57.0,30.34,SW,221,10.0,15.0,100,0.00,,,0.45,,2013-06-13 22:22:00,
2013-06-13 15:32:00,57.0,57.0,30.35,SSW,198,8.0,16.0,100,0.00,,,0.45,,2013-06-13 22:32:00,
2013-06-13 15:42:00,56.0,56.0,30.35,SSW,205,4.0,10.0,100,0.04,,,0.49,,2013-06-13 22:42:00,
2013-06-13 15:52:00,56.0,56.0,30.35,SSW,205,4.0,10.0,100,0.04,,,0.49,,2013-06-13 22:52:00,
2013-06-13 16:01:00,55.0,55.0,30.35,South,173,5.0,12.0,100,0.06,,,0.51,,2013-06-13 23:01:00,
2013-06-13 16:11:00,56.0,56.0,30.35,South,191,5.0,11.0,100,0.06,,,0.51,,2013-06-13 23:11:00,
2013-06-13 16:22:00,57.0,57.0,30.35,South,175,5.0,10.0,100,0.06,,,0.51,,2013-06-13 23:22:00,
2013-06-13 16:32:00,57.0,57.0,30.35,South,175,5.0,10.0,100,0.06,,,0.51,,2013-06-13 23:32:00,
2013-06-13 16:43:00,57.0,57.0,30.35,SSE,159,2.0,8.0,100,0.02,,,0.51,,2013-06-13 23:43:00,
2013-06-13 16:52:00,57.0,57.0,30.35,SSE,159,2.0,8.0,100,0.02,,,0.51,,2013-06-13 23:52:00,
2013-06-13 17:01:00,57.0,57.0,30.35,SW,225,2.0,7.0,100,0.00,,,0.51,,2013-06-14 00:01:00,
2013-06-13 17:11:00,59.0,59.0,30.35,WSW,248,5.0,7.0,100,0.00,,,0.51,,2013-06-14 00:11:00,
2013-06-13 17:22:00,59.0,59.0,30.35,WSW,248,5.0,7.0,100,0.00,,,0.51,,2013-06-14 00:22:00,
2013-06-13 17:33:00,58.0,58.0,30.35,SSW,201,4.0,12.0,100,0.00,,,0.51,,2013-06-14 00:33:00,
2013-06-13 17:43:00,59.0,59.0,30.35,West,259,4.0,10.0,100,0.00,,,0.51,,2013-06-14 00:43:00,
2013-06-13 17:53:00,59.0,59.0,30.35,West,259,4.0,10.0,100,0.00,,,0.51,,2013-06-14 00:53:00,
2013-06-13 18:01:00,59.0,59.0,30.35,SW,232,7.0,10.0,100,0.00,,,0.51,,2013-06-14 01:01:00,
2013-06-13 18:11:00,59.0,59.0,30.35,SW,221,4.0,8.0,100,0.00,,,0.51,,2013-06-14 01:11:00,
2013-06-13 18:22:00,58.0,58.0,30.36,SW,223,4.0,10.0,100,0.00,,,0.51,,2013-06-14 01:22:00,
2013-06-13 18:32:00,58.0,58.0,30.36,SW,223,4.0,10.0,100,0.00,,,0.51,,2013-06-14 01:32:00,
2013-06-13 18:43:00,58.0,58.0,30.35,WSW,245,4.0,8.0,100,0.00,,,0.51,,2013-06-14 01:43:00,
2013-06-13 18:52:00,58.0,58.0,30.35,WSW,245,4.0,8.0,100,0.00,,,0.51,,2013-06-14 01:52:00,
2013-06-13 19:01:00,58.0,58.0,30.35,SSW,202,5.0,8.0,100,0.00,,,0.51,,2013-06-14 02:01:00,
2013-06-13 19:11:00,57.0,57.0,30.35,SSW,205,6.0,11.0,100,0.00,,,0.51,,2013-06-14 02:11:00,
2013-06-13 19:22:00,57.0,57.0,30.35,SSW,213,4.0,8.0,100,0.00,,,0.51,,2013-06-14 02:22:00,
2013-06-13 19:32:00,57.0,57.0,30.35,SSW,213,4.0,8.0,100,0.00,,,0.51,,2013-06-14 02:32:00,
2013-06-13 19:43:00,57.0,57.0,30.35,SSE,168,7.0,10.0,100,0.00,,,0.51,,2013-06-14 02:43:00,
2013-06-13 19:52:00,57.0,57.0,30.35,South,180,4.0,7.0,100,0.00,,,0.51,,2013-06-14 02:52:00,
2013-06-13 20:02:00,57.0,57.0,30.35,South,180,4.0,7.0,100,0.00,,,0.51,,2013-06-14 03:02:00,
2013-06-13 20:11:00,57.0,57.0,30.35,South,173,5.0,8.0,100,0.00,,,0.51,,2013-06-14 03:11:00,
2013-06-13 20:22:00,57.0,57.0,30.35,South,173,5.0,8.0,100,0.00,,,0.51,,2013-06-14 03:22:00,
2013-06-13 20:34:00,57.0,57.0,30.35,SSW,198,4.0,6.0,100,0.00,,,0.51,,2013-06-14 03:34:00,
2013-06-13 20:43:00,57.0,57.0,30.35,SSW,198,4.0,8.0,100,0.00,,,0.51,,2013-06-14 03:43:00,
2013-06-13 20:52:00,57.0,57.0,30.35,SSW,198,4.0,8.0,100,0.00,,,0.51,,2013-06-14 03:52:00,
2013-06-13 21:01:00,56.0,56.0,30.36,South,181,2.0,10.0,100,0.00,,,0.51,,2013-06-14 04:01:00,
2013-06-13 21:12:00,56.0,56.0,30.36,SSE,166,5.0,9.0,100,0.00,,,0.51,,2013-06-14 04:12:00,
2013-06-13 21:22:00,56.0,56.0,30.36,South,171,3.0,9.0,100,0.00,,,0.51,,2013-06-14 04:22:00,
2013-06-13 21:33:00,56.0,56.0,30.36,South,171,3.0,9.0,100,0.00,,,0.51,,2013-06-14 04:33:00,
2013-06-13 21:43:00,56.0,56.0,30.36,South,190,3.0,8.0,100,0.00,,,0.51,,2013-06-14 04:43:00,
2013-06-13 21:53:00,56.0,56.0,30.36,South,190,3.0,8.0,100,0.00,,,0.51,,2013-06-14 04:53:00,
2013-06-13 22:01:00,56.0,56.0,30.36,SSE,159,3.0,6.0,100,0.00,,,0.51,,2013-06-14 05:01:00,
2013-06-13 22:11:00,56.0,56.0,30.36,South,178,4.0,5.0,100,0.00,,,0.51,,2013-06-14 05:11:00,
2013-06-13 22:22:00,56.0,56.0,30.36,SSE,156,4.0,7.0,100,0.00,,,0.51,,2013-06-14 05:22:00,
2013-06-13 22:33:00,56.0,56.0,30.36,SSE,156,4.0,7.0,100,0.00,,,0.51,,2013-06-14 05:33:00,
2013-06-13 22:43:00,56.0,56.0,30.37,South,171,4.0,6.0,100,0.00,,,0.51,,2013-06-14 05:43:00,
2013-06-13 22:52:00,56.0,56.0,30.37,South,171,4.0,6.0,100,0.00,,,0.51,,2013-06-14 05:52:00,
2013-06-13 23:02:00,55.0,55.0,30.37,SSE,152,6.0,8.0,100,0.00,,,0.51,,2013-06-14 06:02:00,
2013-06-13 23:12:00,56.0,56.0,30.37,SSE,154,2.0,5.0,100,0.00,,,0.51,,2013-06-14 06:12:00,
2013-06-13 23:22:00,55.0,55.0,30.37,SE,144,3.0,5.0,100,0.00,,,0.51,,2013-06-14 06:22:00,
2013-06-13 23:33:00,55.0,55.0,30.37,SE,144,3.0,5.0,100,0.00,,,0.51,,2013-06-14 06:33:00,
2013-06-13 23:43:00,55.0,55.0,30.37,ESE,115,3.0,5.0,100,0.00,,,0.51,,2013-06-14 06:43:00,
2013-06-13 23:52:00,55.0,55.0,30.36,SE,136,4.0,5.0,100,0.00,,,0.51,,2013-06-14 06:52:00,